createdAt,value
2022-10-17T00:01:19.736Z,13.90
2022-10-17T00:03:48.694Z,13.92
2022-10-17T00:06:17.277Z,13.94
2022-10-17T00:08:45.862Z,13.90
2022-10-17T00:11:21.040Z,13.90
2022-10-17T00:13:53.961Z,13.80
2022-10-17T00:16:41.209Z,13.80
2022-10-17T00:19:09.897Z,13.80
2022-10-17T00:21:38.584Z,13.80
2022-10-17T00:24:07.643Z,13.86
2022-10-17T00:26:36.471Z,13.84
2022-10-17T00:29:04.927Z,13.80
2022-10-17T00:31:34.456Z,13.82
2022-10-17T00:34:03.246Z,13.80
2022-10-17T00:36:32.156Z,13.88
2022-10-17T00:39:01.029Z,13.82
2022-10-17T00:41:33.600Z,13.80
2022-10-17T00:44:27.794Z,13.80
2022-10-17T00:47:01.367Z,13.80
2022-10-17T00:49:35.610Z,13.80
2022-10-17T00:52:10.404Z,13.80
2022-10-17T00:54:44.970Z,13.80
2022-10-17T00:57:16.615Z,13.90
2022-10-17T00:59:52.040Z,13.90
2022-10-17T01:02:23.179Z,13.90
2022-10-17T01:04:56.811Z,13.90
2022-10-17T01:07:28.743Z,13.90
2022-10-17T01:09:59.761Z,13.80
2022-10-17T01:12:39.567Z,13.80
2022-10-17T01:16:16.759Z,13.88
2022-10-17T01:18:48.624Z,13.80
2022-10-17T01:22:00.935Z,13.70
2022-10-17T01:24:59.317Z,13.60
2022-10-17T01:27:52.883Z,13.60
2022-10-17T01:30:30.069Z,13.60
2022-10-17T01:34:02.143Z,13.60
2022-10-17T01:37:15.140Z,13.60
2022-10-17T01:39:52.725Z,13.60
2022-10-17T01:42:46.744Z,13.60
2022-10-17T01:45:28.543Z,13.60
2022-10-17T01:48:00.918Z,13.56
2022-10-17T01:50:36.660Z,13.50
2022-10-17T01:53:36.795Z,13.52
2022-10-17T01:56:08.960Z,13.50
2022-10-17T01:58:49.524Z,13.50
2022-10-17T02:01:23.270Z,13.50
2022-10-17T02:03:53.922Z,13.50
2022-10-17T02:06:22.751Z,13.50
2022-10-17T02:08:52.364Z,13.50
2022-10-17T02:11:25.653Z,13.50
2022-10-17T02:14:26.194Z,13.44
2022-10-17T02:17:18.430Z,13.40
2022-10-17T02:20:18.045Z,13.30
2022-10-17T02:23:08.497Z,13.30
2022-10-17T02:25:44.395Z,13.30
2022-10-17T02:28:30.642Z,13.30
2022-10-17T02:31:08.902Z,13.22
2022-10-17T02:34:10.564Z,13.20
2022-10-17T02:36:46.344Z,13.20
2022-10-17T02:39:16.539Z,13.10
2022-10-17T02:41:47.503Z,13.10
2022-10-17T02:44:17.392Z,13.08
2022-10-17T02:46:56.188Z,13.00
2022-10-17T02:49:30.780Z,13.00
2022-10-17T02:52:41.002Z,13.00
2022-10-17T02:55:36.623Z,13.00
2022-10-17T02:58:30.807Z,13.00
2022-10-17T03:01:00.764Z,13.00
2022-10-17T03:03:32.543Z,13.00
2022-10-17T03:06:04.341Z,13.00
2022-10-17T03:08:32.882Z,13.00
2022-10-17T03:11:03.046Z,13.00
2022-10-17T03:13:34.964Z,12.96
2022-10-17T03:16:06.622Z,13.00
2022-10-17T03:18:36.992Z,12.92
2022-10-17T03:21:06.600Z,12.98
2022-10-17T03:23:35.801Z,13.00
2022-10-17T03:26:06.863Z,12.96
2022-10-17T03:28:36.409Z,12.90
2022-10-17T03:31:16.029Z,12.90
2022-10-17T03:33:45.394Z,12.90
2022-10-17T03:36:18.552Z,12.90
2022-10-17T03:38:48.792Z,12.90
2022-10-17T03:41:18.522Z,12.90
2022-10-17T03:43:47.411Z,12.90
2022-10-17T03:48:50.522Z,12.80
2022-10-17T03:51:19.426Z,12.80
2022-10-17T03:53:52.502Z,12.80
2022-10-17T03:56:24.964Z,12.70
2022-10-17T03:59:12.790Z,12.70
2022-10-17T04:01:42.677Z,12.70
2022-10-17T04:04:12.031Z,12.70
2022-10-17T04:06:40.819Z,12.68
2022-10-17T04:09:11.708Z,12.60
2022-10-17T04:11:46.002Z,12.60
2022-10-17T04:14:14.868Z,12.60
2022-10-17T04:16:44.428Z,12.60
2022-10-17T04:19:17.156Z,12.60
2022-10-17T04:21:48.130Z,12.56
2022-10-17T04:24:17.089Z,12.60
2022-10-17T04:26:55.262Z,12.50
2022-10-17T04:29:26.239Z,12.50
2022-10-17T04:31:58.100Z,12.50
2022-10-17T04:34:37.335Z,12.50
2022-10-17T04:37:06.022Z,12.50
2022-10-17T04:39:34.913Z,12.50
2022-10-17T04:42:03.399Z,12.50
2022-10-17T04:44:33.926Z,12.48
2022-10-17T04:47:02.612Z,12.44
2022-10-17T04:49:31.145Z,12.50
2022-10-17T04:52:07.566Z,12.50
2022-10-17T04:54:44.813Z,12.50
2022-10-17T04:57:15.279Z,12.50
2022-10-17T04:59:49.395Z,12.52
2022-10-17T05:02:28.691Z,12.50
2022-10-17T05:04:57.416Z,12.50
2022-10-17T05:07:25.900Z,12.50
2022-10-17T05:09:58.987Z,12.40
2022-10-17T05:12:27.945Z,12.40
2022-10-17T05:14:56.772Z,12.30
2022-10-17T05:17:26.687Z,12.30
2022-10-17T05:19:55.170Z,12.30
2022-10-17T05:22:24.164Z,12.22
2022-10-17T05:24:52.747Z,12.22
2022-10-17T05:27:21.127Z,12.28
2022-10-17T05:29:49.916Z,12.22
2022-10-17T05:32:26.015Z,12.26
2022-10-17T05:34:54.662Z,12.30
2022-10-17T05:37:23.767Z,12.30
2022-10-17T05:39:53.478Z,12.34
2022-10-17T05:42:22.110Z,12.40
2022-10-17T05:44:50.642Z,12.40
2022-10-17T05:47:20.349Z,12.48
2022-10-17T05:49:52.308Z,12.50
2022-10-17T05:52:25.815Z,12.60
2022-10-17T05:55:14.570Z,12.70
2022-10-17T05:57:43.052Z,12.86
2022-10-17T06:00:15.121Z,13.00
2022-10-17T06:02:48.782Z,13.10
2022-10-17T06:05:18.508Z,13.26
2022-10-17T06:07:50.421Z,13.40
2022-10-17T06:10:19.697Z,13.50
2022-10-17T06:12:48.178Z,13.60
2022-10-17T06:15:17.524Z,13.70
2022-10-17T06:17:49.861Z,13.90
2022-10-17T06:20:18.334Z,14.04
2022-10-17T06:22:46.714Z,14.20
2022-10-17T06:25:22.776Z,14.40
2022-10-17T06:27:51.257Z,14.70
2022-10-17T06:30:19.738Z,15.00
2022-10-17T06:32:48.117Z,15.20
2022-10-17T06:35:17.521Z,15.50
2022-10-17T06:37:46.413Z,15.84
2022-10-17T06:40:17.288Z,16.24
2022-10-17T06:42:46.551Z,16.70
2022-10-17T06:45:40.531Z,17.16
2022-10-17T06:48:29.700Z,17.40
2022-10-17T06:51:24.394Z,17.78
2022-10-17T06:53:58.785Z,17.94
2022-10-17T06:56:42.453Z,18.10
2022-10-17T06:59:24.964Z,18.30
2022-10-17T07:02:16.077Z,18.48
2022-10-17T07:04:47.838Z,18.60
2022-10-17T07:07:16.420Z,18.78
2022-10-17T07:09:45.107Z,18.88
2022-10-17T07:12:13.825Z,18.90
2022-10-17T07:14:47.703Z,18.80
2022-10-17T07:17:17.620Z,18.80
2022-10-17T07:19:46.269Z,18.72
2022-10-17T07:22:14.787Z,18.80
2022-10-17T07:24:46.409Z,19.00
2022-10-17T07:27:41.345Z,19.10
2022-10-17T07:30:11.161Z,19.36
2022-10-17T07:32:43.612Z,19.64
2022-10-17T07:35:12.936Z,19.80
2022-10-17T07:37:42.552Z,20.04
2022-10-17T07:40:11.469Z,20.40
2022-10-17T07:45:14.436Z,21.10
2022-10-17T07:47:43.642Z,21.30
2022-10-17T07:50:15.103Z,21.40
2022-10-17T07:52:43.578Z,21.50
2022-10-17T07:55:12.163Z,21.56
2022-10-17T07:57:40.745Z,21.66
2022-10-17T08:00:10.118Z,21.70
2022-10-17T08:02:43.033Z,21.60
2022-10-17T08:05:11.517Z,21.48
2022-10-17T08:07:41.739Z,21.30
2022-10-17T08:10:13.941Z,21.36
2022-10-17T08:12:43.109Z,21.70
2022-10-17T08:15:12.057Z,21.90
2022-10-17T08:17:40.482Z,21.90
2022-10-17T08:20:11.016Z,21.78
2022-10-17T08:22:39.594Z,21.48
2022-10-17T08:25:09.305Z,21.50
2022-10-17T08:27:37.991Z,21.50
2022-10-17T08:30:07.865Z,21.62
2022-10-17T08:32:36.390Z,21.80
2022-10-17T08:35:05.690Z,22.04
2022-10-17T08:37:34.316Z,22.30
2022-10-17T08:40:04.065Z,22.60
2022-10-17T08:42:44.247Z,22.90
2022-10-17T08:45:23.988Z,22.90
2022-10-17T08:47:59.824Z,23.00
2022-10-17T08:50:39.793Z,23.10
2022-10-17T08:53:31.110Z,23.10
2022-10-17T08:56:11.960Z,23.20
2022-10-17T08:58:43.743Z,23.30
2022-10-17T09:01:33.933Z,23.40
2022-10-17T09:04:35.752Z,23.50
2022-10-17T09:07:28.539Z,23.60
2022-10-17T09:10:26.421Z,23.82
2022-10-17T09:13:22.141Z,24.10
2022-10-17T09:16:54.728Z,24.40
2022-10-17T09:19:45.329Z,24.70
2022-10-17T09:22:28.727Z,24.60
2022-10-17T09:25:03.553Z,24.90
2022-10-17T09:28:11.416Z,25.00
2022-10-17T09:31:14.693Z,24.90
2022-10-17T09:33:54.715Z,25.00
2022-10-17T09:36:30.318Z,25.00
2022-10-17T09:39:23.173Z,25.04
2022-10-17T09:42:00.187Z,25.00
2022-10-17T09:44:36.136Z,24.90
2022-10-17T09:47:35.698Z,24.70
2022-10-17T09:50:14.831Z,24.80
2022-10-17T09:52:48.922Z,24.90
2022-10-17T09:56:04.328Z,25.04
2022-10-17T09:58:54.761Z,25.40
2022-10-17T10:01:29.280Z,25.60
2022-10-17T10:04:16.877Z,25.80
2022-10-17T10:07:12.494Z,25.90
2022-10-17T10:09:47.018Z,26.00
2022-10-17T10:12:38.763Z,26.10
2022-10-17T10:15:41.355Z,26.10
2022-10-17T10:18:25.765Z,26.00
2022-10-17T10:21:20.012Z,25.90
2022-10-17T10:24:13.745Z,25.80
2022-10-17T10:26:50.903Z,25.80
2022-10-17T10:29:34.987Z,25.80
2022-10-17T10:32:25.270Z,25.70
2022-10-17T10:35:21.826Z,25.80
2022-10-17T10:37:54.564Z,25.60
2022-10-17T10:40:37.462Z,25.40
2022-10-17T10:43:07.019Z,25.30
2022-10-17T10:45:53.603Z,25.30
2022-10-17T10:48:23.867Z,25.30
2022-10-17T10:51:12.301Z,25.24
2022-10-17T10:54:10.580Z,25.08
2022-10-17T10:56:40.599Z,25.08
2022-10-17T10:59:08.913Z,25.00
2022-10-17T11:02:02.551Z,24.90
2022-10-17T11:04:53.017Z,24.86
2022-10-17T11:07:36.985Z,24.98
2022-10-17T11:10:17.354Z,24.90
2022-10-17T11:13:04.983Z,25.00
2022-10-17T11:15:45.446Z,25.10
2022-10-17T11:18:28.571Z,25.20
2022-10-17T11:21:33.453Z,25.20
2022-10-17T11:24:34.046Z,25.30
2022-10-17T11:27:06.700Z,25.32
2022-10-17T11:29:39.409Z,25.40
2022-10-17T11:32:31.871Z,25.30
2022-10-17T11:35:30.950Z,25.20
2022-10-17T11:38:25.951Z,25.12
2022-10-17T11:40:59.969Z,25.10
2022-10-17T11:43:38.977Z,25.00
2022-10-17T11:46:29.080Z,24.82
2022-10-17T11:49:20.479Z,24.80
2022-10-17T11:52:10.281Z,24.80
2022-10-17T11:54:46.444Z,24.90
2022-10-17T11:57:42.407Z,24.92
2022-10-17T12:00:50.324Z,25.00
2022-10-17T12:04:03.501Z,25.00
2022-10-17T12:06:46.326Z,25.10
2022-10-17T12:09:41.071Z,25.10
2022-10-17T12:12:10.016Z,25.10
2022-10-17T12:14:42.498Z,24.98
2022-10-17T12:17:30.947Z,24.90
2022-10-17T12:20:21.748Z,24.90
2022-10-17T12:23:11.735Z,24.90
2022-10-17T12:26:04.725Z,25.00
2022-10-17T12:28:37.873Z,25.10
2022-10-17T12:31:29.635Z,25.10
2022-10-17T12:34:05.669Z,25.08
2022-10-17T12:36:34.152Z,25.10
2022-10-17T12:39:02.634Z,25.10
2022-10-17T12:41:40.252Z,25.10
2022-10-17T12:44:15.244Z,25.10
2022-10-17T12:47:18.972Z,25.10
2022-10-17T12:49:53.098Z,25.10
2022-10-17T12:52:35.244Z,25.10
2022-10-17T12:55:12.535Z,25.10
2022-10-17T12:57:50.484Z,25.10
2022-10-17T13:01:18.925Z,25.00
2022-10-17T13:03:47.062Z,25.10
2022-10-17T13:06:29.655Z,25.10
2022-10-17T13:09:05.922Z,25.00
2022-10-17T13:11:37.991Z,24.90
2022-10-17T13:14:15.685Z,24.90
2022-10-17T13:16:54.612Z,24.90
2022-10-17T13:19:31.926Z,24.90
2022-10-17T13:22:06.791Z,24.82
2022-10-17T13:24:41.548Z,24.80
2022-10-17T13:27:33.489Z,24.80
2022-10-17T13:30:29.332Z,24.70
2022-10-17T13:33:02.407Z,24.70
2022-10-17T13:38:32.634Z,24.60
2022-10-17T13:41:30.191Z,24.64
2022-10-17T13:43:53.373Z,24.64
2022-10-17T13:46:39.788Z,24.60
2022-10-17T13:49:28.157Z,24.60
2022-10-17T13:51:58.609Z,24.50
2022-10-17T13:54:42.498Z,24.40
2022-10-17T13:57:28.067Z,24.30
2022-10-17T14:00:11.714Z,24.30
2022-10-17T14:02:41.532Z,24.20
2022-10-17T14:05:20.182Z,24.20
2022-10-17T14:08:21.883Z,24.20
2022-10-17T14:10:50.607Z,24.20
2022-10-17T14:13:29.087Z,24.10
2022-10-17T14:16:03.358Z,24.10
2022-10-17T14:18:37.318Z,24.00
2022-10-17T14:21:36.855Z,24.00
2022-10-17T14:24:35.958Z,23.90
2022-10-17T14:27:42.746Z,23.90
2022-10-17T14:30:51.775Z,23.80
2022-10-17T14:33:31.452Z,23.80
2022-10-17T14:36:02.768Z,23.70
2022-10-17T14:38:32.167Z,23.70
2022-10-17T14:41:37.405Z,23.70
2022-10-17T14:44:03.785Z,23.60
2022-10-17T14:46:33.244Z,23.60
2022-10-17T14:49:16.943Z,23.60
2022-10-17T14:52:18.981Z,23.58
2022-10-17T14:54:49.990Z,23.50
2022-10-17T14:57:33.732Z,23.50
2022-10-17T15:00:02.523Z,23.50
2022-10-17T15:02:31.400Z,23.50
2022-10-17T15:05:00.203Z,23.42
2022-10-17T15:07:29.814Z,23.40
2022-10-17T15:09:58.600Z,23.40
2022-10-17T15:12:27.210Z,23.30
2022-10-17T15:14:55.910Z,23.30
2022-10-17T15:17:31.629Z,23.26
2022-10-17T15:20:00.748Z,23.20
2022-10-17T15:22:29.758Z,23.10
2022-10-17T15:24:59.015Z,23.10
2022-10-17T15:27:28.066Z,23.00
2022-10-17T15:29:57.106Z,22.90
2022-10-17T15:32:25.486Z,22.86
2022-10-17T15:34:53.978Z,22.80
2022-10-17T15:37:25.714Z,22.70
2022-10-17T15:39:57.107Z,22.68
2022-10-17T15:42:30.674Z,22.60
2022-10-17T15:44:59.358Z,22.56
2022-10-17T15:47:34.427Z,22.50
2022-10-17T15:50:05.052Z,22.40
2022-10-17T15:52:33.617Z,22.38
2022-10-17T15:55:05.261Z,22.30
2022-10-17T15:57:38.920Z,22.30
2022-10-17T16:00:20.165Z,22.20
2022-10-17T16:02:50.340Z,22.10
2022-10-17T16:05:23.815Z,22.00
2022-10-17T16:07:54.779Z,21.90
2022-10-17T16:10:24.224Z,21.80
2022-10-17T16:12:55.679Z,21.80
2022-10-17T16:15:28.117Z,21.78
2022-10-17T16:18:01.577Z,21.80
2022-10-17T16:20:33.002Z,21.70
2022-10-17T16:23:03.406Z,21.68
2022-10-17T16:25:32.970Z,21.60
2022-10-17T16:28:02.438Z,21.50
2022-10-17T16:30:33.008Z,21.50
2022-10-17T16:33:01.865Z,21.50
2022-10-17T16:35:34.742Z,21.40
2022-10-17T16:38:08.414Z,21.40
2022-10-17T16:40:39.216Z,21.40
2022-10-17T16:43:12.890Z,21.40
2022-10-17T16:45:41.795Z,21.30
2022-10-17T16:48:12.516Z,21.20
2022-10-17T16:50:41.618Z,21.20
2022-10-17T16:53:10.712Z,21.10
2022-10-17T16:55:39.510Z,21.00
2022-10-17T16:58:08.288Z,20.98
2022-10-17T17:00:39.881Z,20.90
2022-10-17T17:03:08.426Z,20.90
2022-10-17T17:05:37.121Z,20.90
2022-10-17T17:08:09.088Z,20.80
2022-10-17T17:10:47.633Z,20.62
2022-10-17T17:13:16.486Z,20.50
2022-10-17T17:18:23.642Z,20.20
2022-10-17T17:20:52.072Z,20.20
2022-10-17T17:23:20.861Z,20.10
2022-10-17T17:25:50.905Z,20.10
2022-10-17T17:28:19.461Z,20.10
2022-10-17T17:30:47.843Z,20.10
2022-10-17T17:33:16.221Z,20.00
2022-10-17T17:35:44.809Z,19.96
2022-10-17T17:38:13.288Z,19.90
2022-10-17T17:40:50.692Z,19.90
2022-10-17T17:43:20.289Z,19.80
2022-10-17T17:45:48.872Z,19.80
2022-10-17T17:48:17.870Z,19.80
2022-10-17T17:50:47.692Z,19.80
2022-10-17T17:53:18.952Z,19.80
2022-10-17T17:55:47.817Z,19.70
2022-10-17T17:58:16.503Z,19.70
2022-10-17T18:00:45.439Z,19.70
2022-10-17T18:03:15.210Z,19.70
2022-10-17T18:05:43.793Z,19.64
2022-10-17T18:08:12.480Z,19.60
2022-10-17T18:10:41.534Z,19.60
2022-10-17T18:13:10.673Z,19.60
2022-10-17T18:15:43.015Z,19.60
2022-10-17T18:18:11.732Z,19.60
2022-10-17T18:20:43.200Z,19.50
2022-10-17T18:23:12.077Z,19.50
2022-10-17T18:25:41.185Z,19.50
2022-10-17T18:28:10.270Z,19.50
2022-10-17T18:30:38.957Z,19.50
2022-10-17T18:33:07.541Z,19.50
2022-10-17T18:35:36.200Z,19.50
2022-10-17T18:38:04.813Z,19.40
2022-10-17T18:40:33.395Z,19.30
2022-10-17T18:43:01.979Z,19.30
2022-10-17T18:45:30.667Z,19.30
2022-10-17T18:47:59.251Z,19.20
2022-10-17T18:50:27.835Z,19.20
2022-10-17T18:52:56.625Z,19.14
2022-10-17T18:55:25.345Z,19.10
2022-10-17T18:57:54.032Z,19.00
2022-10-17T19:00:22.530Z,19.00
2022-10-17T19:02:51.067Z,18.90
2022-10-17T19:05:19.997Z,18.90
2022-10-17T19:07:48.643Z,19.00
2022-10-17T19:10:17.235Z,19.00
2022-10-17T19:12:46.463Z,19.00
2022-10-17T19:15:15.217Z,19.00
2022-10-17T19:17:43.800Z,19.00
2022-10-17T19:20:12.821Z,19.00
2022-10-17T19:22:41.438Z,18.94
2022-10-17T19:25:11.091Z,18.90
2022-10-17T19:27:39.675Z,18.90
2022-10-17T19:30:09.624Z,18.90
2022-10-17T19:32:38.788Z,18.88
2022-10-17T19:35:08.159Z,18.90
2022-10-17T19:37:36.673Z,18.90
2022-10-17T19:40:07.089Z,18.90
2022-10-17T19:42:35.686Z,18.80
2022-10-17T19:45:05.052Z,18.80
2022-10-17T19:47:34.590Z,18.70
2022-10-17T19:52:32.827Z,18.70
2022-10-17T19:55:02.347Z,18.62
2022-10-17T19:57:30.880Z,18.68
2022-10-17T19:59:59.370Z,18.70
2022-10-17T20:02:28.057Z,18.70
2022-10-17T20:05:17.035Z,18.70
2022-10-17T20:07:45.393Z,18.70
2022-10-17T20:10:14.762Z,18.70
2022-10-17T20:12:43.485Z,18.60
2022-10-17T20:15:12.384Z,18.60
2022-10-17T20:17:40.959Z,18.50
2022-10-17T20:20:10.819Z,18.50
2022-10-17T20:22:39.457Z,18.50
2022-10-17T20:25:08.759Z,18.50
2022-10-17T20:27:37.239Z,18.40
2022-10-17T20:30:06.754Z,18.40
2022-10-17T20:32:39.519Z,18.30
2022-10-17T20:35:09.605Z,18.30
2022-10-17T20:37:42.387Z,18.30
2022-10-17T20:43:00.592Z,18.20
2022-10-17T20:45:43.709Z,18.20
2022-10-17T20:48:17.832Z,18.12
2022-10-17T20:50:46.213Z,18.10
2022-10-17T20:53:35.926Z,18.10
2022-10-17T20:56:18.094Z,18.10
2022-10-17T20:58:52.148Z,18.08
2022-10-17T21:01:21.921Z,18.00
2022-10-17T21:03:51.460Z,18.00
2022-10-17T21:06:21.034Z,17.98
2022-10-17T21:08:50.338Z,17.90
2022-10-17T21:11:22.177Z,17.88
2022-10-17T21:14:06.755Z,17.80
2022-10-17T21:16:37.556Z,17.70
2022-10-17T21:19:06.674Z,17.68
2022-10-17T21:21:38.207Z,17.60
2022-10-17T21:24:13.278Z,17.50
2022-10-17T21:26:43.706Z,17.40
2022-10-17T21:29:15.057Z,17.36
2022-10-17T21:31:45.342Z,17.30
2022-10-17T21:34:24.823Z,17.30
2022-10-17T21:36:53.919Z,17.20
2022-10-17T21:39:25.065Z,17.20
2022-10-17T21:41:54.230Z,17.10
2022-10-17T21:44:26.024Z,17.10
2022-10-17T21:46:55.760Z,17.10
2022-10-17T21:49:25.650Z,16.90
2022-10-17T21:51:54.131Z,16.80
2022-10-17T21:54:23.775Z,16.70
2022-10-17T21:56:53.097Z,16.70
2022-10-17T21:59:21.518Z,16.60
2022-10-17T22:01:50.025Z,16.60
2022-10-17T22:04:19.843Z,16.50
2022-10-17T22:06:53.449Z,16.48
2022-10-17T22:09:27.324Z,16.40
2022-10-17T22:11:57.169Z,16.40
2022-10-17T22:14:27.742Z,16.30
2022-10-17T22:16:56.481Z,16.30
2022-10-17T22:19:27.077Z,16.24
2022-10-17T22:21:55.737Z,16.20
2022-10-17T22:24:24.157Z,16.10
2022-10-17T22:26:52.846Z,16.10
2022-10-17T22:29:21.529Z,16.00
2022-10-17T22:31:50.017Z,16.00
2022-10-17T22:34:19.193Z,15.98
2022-10-17T22:36:50.661Z,15.90
2022-10-17T22:39:19.247Z,15.90
2022-10-17T22:41:47.626Z,15.80
2022-10-17T22:44:16.004Z,15.80
2022-10-17T22:46:44.384Z,15.80
2022-10-17T22:49:12.866Z,15.70
2022-10-17T22:51:41.348Z,15.78
2022-10-17T22:54:09.729Z,15.70
2022-10-17T22:56:38.215Z,15.70
2022-10-17T22:59:06.624Z,15.70
2022-10-17T23:01:35.104Z,15.70
2022-10-17T23:04:03.655Z,15.60
2022-10-17T23:06:32.139Z,15.60
2022-10-17T23:09:00.518Z,15.60
2022-10-17T23:11:28.999Z,15.50
2022-10-17T23:13:57.379Z,15.50
2022-10-17T23:16:25.861Z,15.50
2022-10-17T23:18:54.248Z,15.42
2022-10-17T23:21:22.927Z,15.40
2022-10-17T23:23:51.409Z,15.30
2022-10-17T23:26:20.916Z,15.30
2022-10-17T23:28:54.805Z,15.20
2022-10-17T23:31:23.529Z,15.20
2022-10-17T23:33:51.994Z,15.12
2022-10-17T23:36:21.379Z,15.10
2022-10-17T23:38:52.628Z,15.00
2022-10-17T23:41:23.686Z,15.00
2022-10-17T23:43:52.067Z,14.90
2022-10-17T23:46:20.445Z,14.90
2022-10-17T23:48:48.938Z,14.90
2022-10-17T23:51:17.818Z,14.90
2022-10-17T23:53:46.405Z,14.90
2022-10-17T23:56:15.149Z,14.90
2022-10-17T23:58:43.777Z,14.80
